This is the latest recevied weather packets stored in our database for station/object OE-11121. If no packets are shown the sender has not sent any weather packets the latest 10 day(s).
| Time | Temp. | Humidity | Pressure | Rain* | Wind** | Luminosity | Snow |
|---|---|---|---|---|---|---|---|
| 1787880333 | 20.56° C | 71% | 1013.7 hPa | 0 mm | - | 0 W/m² | - |
| 1787879505 | 20° C | 74% | 1013.9 hPa | 0 mm | - | 0 W/m² | - |
| 1787879132 | 20° C | 73% | 1014 hPa | 0 mm | - | 0 W/m² | - |
| 1787878533 | 20.56° C | 74% | 1014 hPa | 0 mm | - | 0 W/m² | - |
| 1787877705 | 20° C | 76% | 1014 hPa | 0 mm | - | 0 W/m² | - |
| 1787877333 | 20° C | 75% | 1014 hPa | 0 mm | - | 0 W/m² | - |
| 1787876733 | 19.44° C | 78% | 1014 hPa | 0 mm | - | 0 W/m² | - |
| 1787875905 | 20° C | 77% | 1014.2 hPa | 0 mm | - | 0 W/m² | - |
| 1787875532 | 20.56° C | 74% | 1014.3 hPa | 0 mm | - | 0 W/m² | - |
| 1787874933 | 20.56° C | 74% | 1014.3 hPa | 0 mm | - | 0 W/m² | - |
| 1787874105 | 21.11° C | 72% | 1014.1 hPa | 0 mm | - | 0 W/m² | - |
| 1787873733 | 21.11° C | 73% | 1014 hPa | 0 mm | - | 0 W/m² | - |
| 1787873132 | 21.11° C | 71% | 1013.9 hPa | 0 mm | - | 0 W/m² | - |
| 1787872533 | 21.67° C | 68% | 1013.8 hPa | 0 mm | - | 0 W/m² | - |
| 1787871932 | 21.67° C | 69% | 1013.6 hPa | 0 mm | - | 0 W/m² | - |
| 1787870506 | 22.22° C | 66% | 1013.6 hPa | 0 mm | - | 0 W/m² | - |
| 1787870133 | 22.78° C | 63% | 1013.8 hPa | 0 mm | - | 0 W/m² | - |
| 1787869533 | 22.22° C | 66% | 1013.9 hPa | 0 mm | - | 0 W/m² | - |
| 1787868706 | 22.78° C | 65% | 1013.9 hPa | 0 mm | - | 0 W/m² | - |
| 1787868332 | 22.78° C | 64% | 1014.1 hPa | 0 mm | - | 0 W/m² | - |
| 1787867733 | 22.78° C | 65% | 1014 hPa | 0 mm | - | 0 W/m² | - |
| 1787866906 | 23.33° C | 61% | 1013.9 hPa | 0 mm | - | 0 W/m² | - |
| 1787866532 | 26.67° C | 47% | 1013.1 hPa | 0 mm | - | 0 W/m² | - |
| 1787865933 | 26.11° C | 50% | 1013.1 hPa | 0 mm | - | 0 W/m² | - |
| 1787865106 | 26.67° C | 48% | 1012.8 hPa | 0 mm | - | 0 W/m² | - |
* Rain latest hour (hover to see other rain measurements)
** Current wind speed in m/s (hover to see current wind gust speed)